Time;durP1;ratioP1;P1;durP2;ratioP2;P2;SDS_P1;SDS_P2;PMS_P1;PMS_P2;Temp;Humidity;BMP_temperature;BMP_pressure;BME280_temperature;BME280_humidity;BME280_pressure;Samples;Min_cycle;Max_cycle;Signal;HPM_P1;HPM_P2
2023/12/19 00:01:27;;;;;;;9.45;3.03;;;;;;;14.59;100.00;102105.03;10535045;28;20123;-84
2023/12/19 00:06:50;;;;;;;13.75;3.55;;;;;;;14.70;100.00;102103.47;10545101;28;20050;-84
2023/12/19 00:12:12;;;;;;;13.82;3.15;;;;;;;14.58;100.00;102095.25;10554278;28;20505;-84
2023/12/19 00:17:36;;;;;;;9.88;3.33;;;;;;;14.43;100.00;102097.63;10549824;28;20040;-85
2023/12/19 00:23:00;;;;;;;10.07;2.72;;;;;;;14.25;100.00;102087.44;10544114;28;20052;-85
2023/12/19 00:28:22;;;;;;;13.13;2.90;;;;;;;13.98;100.00;102087.72;10525688;28;20093;-84
2023/12/19 00:33:51;;;;;;;10.13;2.30;;;;;;;13.78;100.00;102089.03;10534498;28;20414;-84
2023/12/19 00:39:15;;;;;;;11.02;3.28;;;;;;;13.69;100.00;102079.94;10543832;28;20553;-85
2023/12/19 00:44:39;;;;;;;7.55;2.75;;;;;;;13.54;100.00;102081.34;10557590;28;20049;-84
2023/12/19 00:50:07;;;;;;;15.57;6.43;;;;;;;13.44;100.00;102079.34;10564534;27;20660;-84
2023/12/19 00:55:32;;;;;;;11.52;3.85;;;;;;;13.48;100.00;102078.56;10601964;27;20078;-84
2023/12/19 01:00:55;;;;;;;9.40;4.05;;;;;;;13.39;100.00;102073.00;10584626;27;20047;-85
2023/12/19 01:06:19;;;;;;;11.10;3.00;;;;;;;13.27;100.00;102072.69;10587652;27;20103;-85
2023/12/19 01:11:42;;;;;;;10.20;3.63;;;;;;;13.27;100.00;102071.78;10586073;27;20043;-84
2023/12/19 01:17:05;;;;;;;7.93;3.78;;;;;;;13.31;100.00;102073.69;10580339;27;20126;-84
2023/12/19 01:22:29;;;;;;;10.15;4.07;;;;;;;13.46;100.00;102079.34;10585110;27;20319;-84
2023/12/19 01:27:52;;;;;;;9.65;4.43;;;;;;;13.59;100.00;102085.91;10602720;27;20043;-84
2023/12/19 01:33:14;;;;;;;15.18;4.80;;;;;;;13.53;100.00;102078.66;10589532;27;20045;-85
2023/12/19 01:38:39;;;;;;;13.40;3.95;;;;;;;13.53;100.00;102066.28;10603974;27;20522;-85
2023/12/19 01:44:02;;;;;;;12.95;3.53;;;;;;;13.66;100.00;102066.56;10582823;27;20058;-85
2023/12/19 01:49:25;;;;;;;5.30;2.67;;;;;;;13.70;100.00;102068.47;10602972;28;20043;-84
2023/12/19 01:54:50;;;;;;;12.68;2.83;;;;;;;13.83;100.00;102074.09;10603683;28;20065;-85
2023/12/19 02:00:15;;;;;;;9.10;2.60;;;;;;;13.93;100.00;102069.88;10602492;28;20146;-85
2023/12/19 02:05:40;;;;;;;11.18;2.97;;;;;;;14.07;100.00;102065.78;10589394;28;20388;-84
2023/12/19 02:11:05;;;;;;;8.32;2.78;;;;;;;14.07;100.00;102048.94;10601779;28;20051;-85
2023/12/19 02:16:28;;;;;;;8.00;2.55;;;;;;;13.99;100.00;102043.47;10588595;28;20051;-84
2023/12/19 02:21:50;;;;;;;9.25;2.40;;;;;;;13.83;100.00;102038.69;10561093;28;20394;-85
2023/12/19 02:27:15;;;;;;;10.68;6.00;;;;;;;13.83;100.00;102038.69;10561283;28;20058;-84
2023/12/19 02:32:38;;;;;;;13.75;5.00;;;;;;;13.74;100.00;102033.16;10592379;27;20050;-85
2023/12/19 02:38:00;;;;;;;13.10;8.23;;;;;;;13.53;100.00;102030.91;10584608;27;20521;-84
2023/12/19 02:43:24;;;;;;;10.43;4.22;;;;;;;13.30;100.00;102024.16;10557810;27;20511;-84
2023/12/19 02:48:46;;;;;;;13.82;4.50;;;;;;;13.12;100.00;102024.56;10597044;27;20051;-84
2023/12/19 02:54:09;;;;;;;11.50;3.55;;;;;;;13.08;100.00;102010.31;10610099;27;20107;-84
2023/12/19 02:59:33;;;;;;;13.80;6.18;;;;;;;12.97;100.00;102010.91;10565060;28;20139;-85
2023/12/19 03:04:56;;;;;;;10.88;5.85;;;;;;;12.95;100.00;102007.31;10554257;28;20486;-85
2023/12/19 03:10:18;;;;;;;8.55;4.22;;;;;;;13.28;100.00;102005.53;10571755;27;20052;-84
2023/12/19 03:15:43;;;;;;;13.18;6.00;;;;;;;13.16;100.00;102011.44;10567244;28;20062;-84
2023/12/19 03:21:08;;;;;;;15.00;4.45;;;;;;;12.98;100.00;102010.06;10575395;28;20479;-84
2023/12/19 03:26:30;;;;;;;5.10;2.53;;;;;;;12.94;100.00;102006.41;10566901;28;20051;-85
2023/12/19 03:31:54;;;;;;;5.95;2.55;;;;;;;12.92;100.00;102012.53;10565895;28;20070;-84
2023/12/19 03:37:16;;;;;;;9.57;3.95;;;;;;;12.72;100.00;102015.56;10589374;27;20411;-85
2023/12/19 03:42:39;;;;;;;12.93;2.90;;;;;;;12.68;100.00;102021.63;10582002;27;20054;-85
2023/12/19 03:48:04;;;;;;;9.23;3.95;;;;;;;12.99;100.00;102022.44;10570758;27;20055;-84
2023/12/19 03:53:26;;;;;;;15.60;5.43;;;;;;;13.06;100.00;102027.06;10563594;27;20043;-85
2023/12/19 03:58:49;;;;;;;12.00;5.65;;;;;;;12.85;100.00;102029.13;10586862;27;20051;-84
2023/12/19 04:04:13;;;;;;;10.73;5.43;;;;;;;12.88;100.00;102023.91;10603232;27;20138;-85
2023/12/19 04:09:35;;;;;;;12.85;5.75;;;;;;;13.10;100.00;102028.91;10575771;27;20036;-84
2023/12/19 04:14:58;;;;;;;6.22;2.22;;;;;;;13.13;100.00;102014.00;10566029;27;20048;-85
2023/12/19 04:20:22;;;;;;;6.88;2.10;;;;;;;13.23;100.00;102022.19;10556940;27;20055;-86
2023/12/19 04:25:46;;;;;;;13.00;5.40;;;;;;;13.05;100.00;102012.00;10576601;27;20039;-86
2023/12/19 04:31:09;;;;;;;13.00;3.75;;;;;;;13.07;100.00;102018.22;10565218;27;20040;-86
2023/12/19 04:36:33;;;;;;;12.55;5.43;;;;;;;12.96;100.00;102027.66;10587620;27;20107;-87
2023/12/19 04:41:57;;;;;;;13.82;5.70;;;;;;;12.71;100.00;102037.63;10566484;27;20049;-86
2023/12/19 04:47:20;;;;;;;10.93;5.18;;;;;;;12.71;100.00;102037.63;10567396;27;20141;-86
2023/12/19 04:52:52;;;;;;;11.75;4.35;;;;;;;12.73;100.00;102032.38;10585031;27;20038;-84
2023/12/19 04:58:15;;;;;;;11.77;3.67;;;;;;;12.94;100.00;102037.31;10585365;27;20523;-85
2023/12/19 05:03:39;;;;;;;8.43;3.80;;;;;;;12.97;100.00;102033.00;10582642;27;20047;-83
2023/12/19 05:09:04;;;;;;;11.13;4.72;;;;;;;13.27;100.00;102037.31;10586506;27;20059;-85
2023/12/19 05:14:27;;;;;;;10.18;3.40;;;;;;;13.45;100.00;102036.03;10558012;27;20055;-86
2023/12/19 05:19:50;;;;;;;8.10;2.20;;;;;;;13.61;100.00;102033.75;10567444;27;20134;-83
2023/12/19 05:25:20;;;;;;;8.43;2.33;;;;;;;13.83;100.00;102030.72;10596951;27;20104;-85
2023/12/19 05:30:44;;;;;;;7.53;2.38;;;;;;;14.16;100.00;102030.56;10559331;27;20126;-84
2023/12/19 05:36:07;;;;;;;7.35;2.38;;;;;;;14.27;100.00;102040.56;10569836;27;20039;-85
2023/12/19 05:41:33;;;;;;;66.53;36.83;;;;;;;14.43;100.00;102028.53;10600992;27;20140;-85
2023/12/19 05:46:56;;;;;;;125.25;85.80;;;;;;;14.61;100.00;102043.94;10587012;27;20050;-84
2023/12/19 05:52:21;;;;;;;45.70;30.63;;;;;;;14.66;100.00;102037.84;10563551;28;20048;-84
2023/12/19 05:57:47;;;;;;;26.90;16.38;;;;;;;14.53;100.00;102037.56;10561330;28;20500;-84
2023/12/19 06:03:13;;;;;;;41.03;24.42;;;;;;;14.56;100.00;102051.81;10575235;27;20049;-83
2023/12/19 06:08:37;;;;;;;28.58;17.45;;;;;;;14.47;100.00;102050.72;10565738;27;20046;-85
2023/12/19 06:14:06;;;;;;;22.60;13.25;;;;;;;14.71;100.00;102046.78;10559282;27;20044;-86
2023/12/19 06:19:29;;;;;;;17.08;9.02;;;;;;;15.23;100.00;102050.41;10582772;27;20500;-85
2023/12/19 06:24:51;;;;;;;10.95;3.40;;;;;;;16.45;100.00;102065.59;10565663;27;20043;-85
2023/12/19 06:30:17;;;;;;;6.93;3.15;;;;;;;16.81;100.00;102059.81;10604067;27;20061;-84
2023/12/19 06:35:46;;;;;;;7.78;3.50;;;;;;;16.56;100.00;102053.25;10593653;27;20401;-85
2023/12/19 06:41:09;;;;;;;8.63;3.85;;;;;;;16.57;100.00;102063.06;10577314;27;20058;-84
2023/12/19 06:46:33;;;;;;;6.95;4.70;;;;;;;16.97;100.00;102061.78;10568782;27;20073;-85
2023/12/19 06:51:56;;;;;;;14.50;7.70;;;;;;;17.28;100.00;102069.19;10611867;27;20078;-85
2023/12/19 06:57:19;;;;;;;13.57;5.93;;;;;;;17.41;100.00;102070.19;10584048;27;20059;-85
2023/12/19 07:02:44;;;;;;;8.07;4.80;;;;;;;17.58;100.00;102065.00;10562779;27;20067;-85
2023/12/19 07:08:09;;;;;;;8.90;4.05;;;;;;;17.86;100.00;102053.63;10572385;27;20719;-85
2023/12/19 07:13:32;;;;;;;11.35;4.97;;;;;;;18.10;100.00;102052.91;10573636;27;20244;-85
2023/12/19 07:18:56;;;;;;;10.73;3.80;;;;;;;18.55;100.00;102042.44;10597413;27;20055;-85
2023/12/19 07:24:19;;;;;;;13.88;5.72;;;;;;;20.18;100.00;102045.16;10579204;27;20088;-86
2023/12/19 07:29:41;;;;;;;22.88;9.77;;;;;;;23.05;78.78;102045.25;10580319;27;20430;-85
2023/12/19 07:35:09;;;;;;;15.23;10.43;;;;;;;24.31;67.88;102036.75;10603837;27;20107;-86
2023/12/19 07:40:33;;;;;;;10.68;5.25;;;;;;;24.80;64.94;102032.09;10605588;27;20063;-84
2023/12/19 07:45:55;;;;;;;30.35;10.15;;;;;;;28.04;48.66;102047.78;10583679;27;20605;-84
2023/12/19 07:51:26;;;;;;;14.45;6.07;;;;;;;27.92;47.06;102045.53;10598882;27;20109;-83
2023/12/19 07:56:50;;;;;;;6.80;3.83;;;;;;;28.22;47.03;102057.16;10574913;27;20048;-85
2023/12/19 08:02:14;;;;;;;5.70;2.85;;;;;;;28.52;44.27;102046.94;10567623;27;20183;-86
2023/12/19 08:07:39;;;;;;;6.53;3.10;;;;;;;27.79;44.83;102043.31;10576079;27;20047;-83
2023/12/19 08:13:02;;;;;;;5.57;2.17;;;;;;;27.99;43.76;102043.47;10605411;27;20040;-85
2023/12/19 08:18:25;;;;;;;5.38;2.45;;;;;;;28.77;41.44;102036.03;10606809;27;20049;-84
2023/12/19 08:23:50;;;;;;;6.57;2.30;;;;;;;29.69;39.06;102042.16;10595706;27;20047;-85
2023/12/19 08:29:13;;;;;;;4.57;1.90;;;;;;;27.19;43.42;102036.28;10591636;27;20080;-86
2023/12/19 08:34:35;;;;;;;5.20;1.60;;;;;;;26.61;44.92;102032.69;10605553;27;20054;-87
2023/12/19 08:40:03;;;;;;;5.18;2.10;;;;;;;25.33;46.78;102036.22;10591939;27;20069;-85
2023/12/19 08:45:26;;;;;;;14.93;5.78;;;;;;;24.44;50.21;102033.78;10554314;28;20058;-86
2023/12/19 08:50:49;;;;;;;12.85;5.75;;;;;;;23.58;53.79;102020.16;10582189;27;20107;-85
2023/12/19 08:56:14;;;;;;;8.13;4.20;;;;;;;22.58;60.33;102008.22;10589840;27;20103;-84
2023/12/19 09:01:36;;;;;;;11.50;3.88;;;;;;;22.07;65.25;102008.00;10588769;27;20073;-85
2023/12/19 09:06:59;;;;;;;4.40;2.25;;;;;;;22.82;61.99;101998.94;10549473;27;20051;-85
2023/12/19 09:12:23;;;;;;;9.13;3.40;;;;;;;24.09;56.03;101985.88;10585395;27;20050;-84
2023/12/19 09:17:45;;;;;;;6.32;2.75;;;;;;;28.96;41.18;101970.88;10567222;27;20104;-86
2023/12/19 09:23:08;;;;;;;8.57;3.42;;;;;;;30.55;36.16;101950.09;10568998;27;20043;-84
2023/12/19 09:28:39;;;;;;;6.50;3.58;;;;;;;26.22;44.04;101949.91;10567441;27;20057;-83
2023/12/19 09:34:02;;;;;;;9.52;3.13;;;;;;;23.43;52.68;101939.53;10579777;27;20705;-82
2023/12/19 09:39:36;;;;;;;9.30;3.13;;;;;;;25.15;51.03;101927.66;10586319;27;20039;-81
2023/12/19 09:45:00;;;;;;;7.53;2.40;;;;;;;27.43;42.76;101940.53;10574623;27;20405;-81
2023/12/19 09:50:28;;;;;;;7.43;2.10;;;;;;;25.94;44.99;101942.59;10590338;28;20044;-81
2023/12/19 09:55:51;;;;;;;11.98;2.80;;;;;;;24.00;51.05;101945.63;10569216;28;20565;-81
2023/12/19 10:01:17;;;;;;;10.43;3.17;;;;;;;22.53;59.21;101923.94;10584307;28;20100;-80
2023/12/19 10:06:40;;;;;;;9.55;3.00;;;;;;;21.44;67.79;101929.81;10586170;28;20101;-80
2023/12/19 10:12:11;;;;;;;6.85;3.00;;;;;;;23.75;58.13;101915.56;10586006;28;20044;-80
2023/12/19 10:17:37;;;;;;;8.20;2.30;;;;;;;27.46;43.61;101906.94;10560771;28;20053;-81
2023/12/19 10:23:03;;;;;;;4.90;2.53;;;;;;;28.80;40.04;101889.09;10561128;28;20058;-80
2023/12/19 10:28:25;;;;;;;5.00;2.22;;;;;;;30.58;37.25;101884.53;10575471;28;20059;-81
2023/12/19 10:33:50;;;;;;;9.45;2.03;;;;;;;29.29;38.47;101872.38;10572881;28;20105;-85
2023/12/19 10:39:18;;;;;;;3.60;2.08;;;;;;;28.80;40.18;101870.94;10579908;28;20477;-80
2023/12/19 10:44:41;;;;;;;6.00;2.17;;;;;;;30.51;36.63;101872.16;10607466;28;20039;-80
2023/12/19 10:50:06;;;;;;;4.22;1.80;;;;;;;29.43;37.40;101873.66;10575287;27;20082;-77
2023/12/19 10:55:38;;;;;;;4.30;1.60;;;;;;;26.95;42.09;101865.38;10608837;27;20046;-79
2023/12/19 11:01:01;;;;;;;7.93;2.22;;;;;;;26.53;42.90;101858.66;10593172;27;20047;-81
2023/12/19 11:06:30;;;;;;;6.60;1.88;;;;;;;27.70;40.54;101846.38;10593433;27;20596;-81
2023/12/19 11:11:53;;;;;;;5.03;2.00;;;;;;;27.30;41.18;101833.41;10605869;27;20063;-85
2023/12/19 11:17:20;;;;;;;8.55;2.40;;;;;;;24.88;45.89;101818.41;10593651;27;20048;-88
2023/12/19 11:23:02;;;;;;;8.98;2.35;;;;;;;23.77;51.86;101819.31;10589138;27;20107;-88
2023/12/19 11:28:26;;;;;;;5.90;2.20;;;;;;;23.54;54.46;101807.25;10589918;27;20055;-85
2023/12/19 11:33:48;;;;;;;6.18;2.95;;;;;;;22.90;56.99;101806.69;10586569;27;20425;-82
2023/12/19 11:39:25;;;;;;;9.25;2.17;;;;;;;21.69;68.18;101803.19;10577097;27;20051;-80
2023/12/19 11:44:48;;;;;;;8.43;2.65;;;;;;;21.66;73.31;101800.56;10591053;27;20043;-81
2023/12/19 11:50:12;;;;;;;9.25;2.38;;;;;;;22.04;74.87;101802.75;10587663;27;20445;-81
2023/12/19 11:55:43;;;;;;;7.35;2.60;;;;;;;22.81;74.00;101803.28;10605471;27;20058;-82
2023/12/19 12:01:08;;;;;;;7.03;2.67;;;;;;;22.93;70.37;101803.94;10589926;27;20127;-82
2023/12/19 12:06:32;;;;;;;7.65;2.10;;;;;;;22.74;69.14;101815.97;10605471;27;20059;-82
2023/12/19 12:11:56;;;;;;;8.93;2.30;;;;;;;23.57;64.29;101813.44;10603844;27;20055;-81
2023/12/19 12:17:23;;;;;;;6.53;1.88;;;;;;;24.38;56.26;101817.03;10583614;27;20338;-80
2023/12/19 12:22:45;;;;;;;4.32;1.80;;;;;;;24.47;52.86;101820.41;10602414;27;20096;-81
2023/12/19 12:28:17;;;;;;;4.55;2.00;;;;;;;23.94;52.56;101810.84;10589334;27;20049;-83
2023/12/19 12:33:40;;;;;;;8.55;2.00;;;;;;;23.05;57.03;101813.56;10566855;27;20074;-81
2023/12/19 12:39:03;;;;;;;4.93;2.03;;;;;;;22.31;62.09;101804.13;10579102;27;20039;-83
2023/12/19 12:44:30;;;;;;;5.85;2.35;;;;;;;21.84;66.61;101793.13;10570379;27;20056;-82
2023/12/19 12:50:04;;;;;;;7.20;2.17;;;;;;;21.73;68.46;101797.75;10600216;27;20396;-82
2023/12/19 12:55:27;;;;;;;5.30;2.00;;;;;;;21.66;71.28;101785.28;10603369;27;20407;-84
2023/12/19 13:00:51;;;;;;;6.43;2.40;;;;;;;21.75;70.84;101782.50;10587819;27;20058;-81
2023/12/19 13:06:13;;;;;;;7.65;2.45;;;;;;;21.68;72.01;101778.13;10587672;27;20047;-83
2023/12/19 13:11:36;;;;;;;5.95;1.80;;;;;;;21.36;76.48;101770.47;10602407;27;20042;-83
2023/12/19 13:17:01;;;;;;;4.15;1.85;;;;;;;21.16;79.84;101767.16;10596576;27;20039;-83
2023/12/19 13:22:25;;;;;;;8.43;2.05;;;;;;;20.96;82.05;101779.88;10585983;27;20651;-85
2023/12/19 13:27:49;;;;;;;7.47;2.30;;;;;;;20.74;84.74;101778.34;10583217;27;20054;-84
2023/12/19 13:33:14;;;;;;;4.40;2.22;;;;;;;20.40;87.52;101778.66;10598683;27;20043;-84
2023/12/19 13:38:36;;;;;;;6.82;1.73;;;;;;;19.84;91.80;101782.59;10586773;27;20039;-83
2023/12/19 13:44:02;;;;;;;6.50;2.25;;;;;;;19.37;95.64;101774.75;10587801;27;20055;-84
2023/12/19 13:49:28;;;;;;;10.18;2.50;;;;;;;19.11;99.01;101779.31;10586115;27;20054;-82
2023/12/19 13:54:52;;;;;;;8.38;2.95;;;;;;;18.93;100.00;101769.56;10600827;28;20062;-85
2023/12/19 14:00:18;;;;;;;12.90;7.60;;;;;;;18.84;100.00;101766.03;10597957;28;20069;-85
2023/12/19 14:05:44;;;;;;;14.98;11.52;;;;;;;18.83;100.00;101765.13;10581446;28;20446;-84
2023/12/19 14:11:10;;;;;;;13.23;6.50;;;;;;;18.88;100.00;101771.38;10598603;28;20493;-84
2023/12/19 14:16:34;;;;;;;15.17;10.13;;;;;;;18.99;100.00;101777.56;10611147;27;20388;-83
2023/12/19 14:21:58;;;;;;;35.95;23.20;;;;;;;19.10;100.00;101774.84;10596102;28;20043;-83
2023/12/19 14:27:21;;;;;;;29.63;19.55;;;;;;;19.00;100.00;101765.97;10594865;27;20590;-83
2023/12/19 14:32:44;;;;;;;17.48;9.65;;;;;;;18.61;100.00;101766.06;10609372;27;20042;-83
2023/12/19 14:38:09;;;;;;;7.53;3.70;;;;;;;18.16;100.00;101769.59;10607223;27;20063;-85
2023/12/19 14:43:34;;;;;;;19.90;6.80;;;;;;;17.78;100.00;101770.44;10594486;27;20043;-85
2023/12/19 14:48:58;;;;;;;24.10;13.30;;;;;;;17.47;100.00;101760.50;10592864;27;20065;-81
2023/12/19 14:54:25;;;;;;;18.67;12.73;;;;;;;17.20;100.00;101761.28;10588002;27;20100;-81
2023/12/19 14:59:48;;;;;;;19.70;10.38;;;;;;;16.96;100.00;101758.50;10589580;27;20039;-81
2023/12/19 15:05:11;;;;;;;18.88;9.00;;;;;;;16.70;100.00;101755.69;10590556;27;20699;-84
2023/12/19 15:10:36;;;;;;;16.02;6.85;;;;;;;16.47;100.00;101765.28;10606978;27;20066;-86
2023/12/19 15:15:58;;;;;;;15.82;7.50;;;;;;;16.21;100.00;101760.59;10588397;27;20047;-81
2023/12/19 15:21:22;;;;;;;13.48;9.40;;;;;;;15.95;100.00;101762.16;10606637;27;20054;-84
2023/12/19 15:26:46;;;;;;;14.00;7.35;;;;;;;15.67;100.00;101758.34;10604327;27;20074;-84
2023/12/19 15:32:08;;;;;;;17.48;6.70;;;;;;;15.50;100.00;101762.53;10593759;27;20047;-85
2023/12/19 15:37:31;;;;;;;31.88;19.50;;;;;;;15.56;100.00;101761.75;10571775;27;20051;-85
2023/12/19 15:42:58;;;;;;;47.30;35.05;;;;;;;15.64;100.00;101760.94;10599026;27;20408;-85
2023/12/19 15:48:22;;;;;;;59.00;51.80;;;;;;;15.60;100.00;101772.44;10564209;28;20055;-84
2023/12/19 15:53:45;;;;;;;37.33;28.38;;;;;;;15.28;100.00;101774.69;10576311;27;20292;-81
2023/12/19 15:59:15;;;;;;;29.58;24.38;;;;;;;15.09;100.00;101778.88;10599832;27;20051;-85
2023/12/19 16:04:41;;;;;;;44.92;34.05;;;;;;;15.00;100.00;101778.75;10602496;27;20031;-86
2023/12/19 16:10:03;;;;;;;12.70;9.75;;;;;;;14.86;100.00;101793.59;10606446;27;20051;-83
2023/12/19 16:15:28;;;;;;;12.95;5.05;;;;;;;14.67;100.00;101783.56;10591682;27;20054;-83
2023/12/19 16:20:50;;;;;;;15.38;11.00;;;;;;;14.59;100.00;101778.13;10595017;27;20051;-83
2023/12/19 16:26:13;;;;;;;19.52;10.73;;;;;;;14.60;100.00;101787.00;10584975;27;20047;-83
2023/12/19 16:31:40;;;;;;;28.70;20.20;;;;;;;14.62;100.00;101790.59;10590188;27;20042;-84
2023/12/19 16:37:04;;;;;;;77.45;41.05;;;;;;;14.67;100.00;101796.88;10564020;28;20068;-85
2023/12/19 16:42:27;;;;;;;21.35;13.50;;;;;;;14.71;100.00;101806.66;10554530;27;20043;-83
2023/12/19 16:47:52;;;;;;;46.78;35.53;;;;;;;14.77;100.00;101814.72;10579629;27;20051;-83
2023/12/19 16:53:15;;;;;;;14.85;8.85;;;;;;;14.82;100.00;101814.81;10575719;27;20401;-84
2023/12/19 16:58:37;;;;;;;13.23;6.85;;;;;;;15.03;100.00;101817.81;10542492;28;20050;-82
2023/12/19 17:04:01;;;;;;;16.30;10.00;;;;;;;15.11;100.00;101817.00;10546945;27;20055;-84
2023/12/19 17:09:24;;;;;;;20.65;13.45;;;;;;;14.95;100.00;101807.06;10546739;28;20108;-84
2023/12/19 17:14:46;;;;;;;17.10;13.73;;;;;;;14.85;100.00;101799.78;10594134;27;20072;-85
2023/12/19 17:20:11;;;;;;;27.10;20.90;;;;;;;14.69;100.00;101803.09;10573484;27;20042;-85
2023/12/19 17:25:33;;;;;;;23.13;16.88;;;;;;;14.77;100.00;101804.09;10593814;27;20472;-87
2023/12/19 17:30:55;;;;;;;33.58;26.02;;;;;;;14.99;100.00;101805.31;10588816;27;20047;-86
2023/12/19 17:36:24;;;;;;;27.20;18.70;;;;;;;15.08;100.00;101808.13;10604821;27;20382;-85
2023/12/19 17:41:46;;;;;;;;;;;;;;;15.11;100.00;101801.06;10592704;27;20096;-86
2023/12/19 17:47:08;;;;;;;9.60;5.35;;;;;;;14.97;100.00;101807.94;10572354;27;19973;-86
2023/12/19 17:52:32;;;;;;;16.73;9.20;;;;;;;14.80;100.00;101800.59;10568813;27;20097;-87
2023/12/19 17:57:57;;;;;;;24.85;15.73;;;;;;;14.73;100.00;101804.94;10567553;27;20128;-85
2023/12/19 18:03:19;;;;;;;12.25;8.05;;;;;;;14.59;100.00;101809.13;10574880;27;20046;-83
2023/12/19 18:08:44;;;;;;;16.27;10.90;;;;;;;14.54;100.00;101797.53;10591648;27;20043;-83
2023/12/19 18:14:07;;;;;;;18.20;13.73;;;;;;;14.43;100.00;101796.47;10585202;27;20496;-82
2023/12/19 18:19:32;;;;;;;12.45;8.40;;;;;;;14.28;100.00;101803.28;10581745;27;20043;-81
2023/12/19 18:25:06;;;;;;;17.88;10.38;;;;;;;14.05;100.00;101809.94;10586771;27;20760;-83
2023/12/19 18:30:29;;;;;;;11.77;5.80;;;;;;;14.04;100.00;101815.25;10592182;27;20403;-83
2023/12/19 18:35:53;;;;;;;13.75;5.60;;;;;;;13.88;100.00;101798.13;10604155;27;20062;-86
2023/12/19 18:41:18;;;;;;;9.15;5.50;;;;;;;13.78;100.00;101796.19;10554984;28;20055;-85
2023/12/19 18:46:41;;;;;;;13.57;7.00;;;;;;;13.88;100.00;101796.38;10568486;28;20043;-84
2023/12/19 18:52:05;;;;;;;10.55;5.57;;;;;;;13.79;100.00;101804.13;10578605;27;20100;-86
2023/12/19 18:57:29;;;;;;;13.73;5.93;;;;;;;13.85;100.00;101809.56;10596626;27;20100;-88
2023/12/19 19:02:53;;;;;;;9.73;5.43;;;;;;;13.87;100.00;101812.25;10610037;27;20491;-85
2023/12/19 19:08:17;;;;;;;7.57;3.80;;;;;;;13.73;100.00;101804.03;10609925;27;20753;-85
2023/12/19 19:13:42;;;;;;;10.18;4.75;;;;;;;13.91;100.00;101814.13;10576335;27;20472;-86
2023/12/19 19:19:12;;;;;;;12.32;6.30;;;;;;;13.93;100.00;101810.63;10580048;27;20446;-82
2023/12/19 19:24:39;;;;;;;7.82;5.50;;;;;;;13.86;100.00;101811.34;10573010;27;20043;-80
2023/12/19 19:30:06;;;;;;;14.15;8.18;;;;;;;14.00;100.00;101808.97;10565220;27;20043;-81
2023/12/19 19:35:30;;;;;;;14.75;8.30;;;;;;;14.08;100.00;101799.38;10603142;27;20134;-81
2023/12/19 19:40:54;;;;;;;13.27;8.38;;;;;;;14.07;100.00;101802.00;10585427;27;20059;-81
2023/12/19 19:46:19;;;;;;;16.52;6.82;;;;;;;14.13;100.00;101797.69;10577861;27;20134;-80
2023/12/19 19:51:41;;;;;;;14.65;7.00;;;;;;;13.90;100.00;101792.00;10568579;28;20071;-79
2023/12/19 19:57:04;;;;;;;14.25;8.52;;;;;;;13.51;100.00;101797.44;10563693;28;20124;-82
2023/12/19 20:02:28;;;;;;;12.15;5.63;;;;;;;13.31;100.00;101785.50;10572588;28;20039;-82
2023/12/19 20:07:55;;;;;;;12.57;6.28;;;;;;;13.33;100.00;101802.31;10557212;28;20539;-79
2023/12/19 20:13:18;;;;;;;11.02;4.68;;;;;;;13.21;100.00;101786.16;10549129;28;20040;-83
2023/12/19 20:18:42;;;;;;;8.88;4.40;;;;;;;13.35;100.00;101782.03;10543867;28;20058;-83
2023/12/19 20:24:05;;;;;;;13.73;8.32;;;;;;;13.26;100.00;101787.13;10546314;28;20047;-82
2023/12/19 20:29:29;;;;;;;44.90;28.83;;;;;;;12.98;100.00;101780.34;10532190;28;20044;-82
2023/12/19 20:34:53;;;;;;;42.63;26.60;;;;;;;12.85;100.00;101790.63;10550645;28;20075;-84
2023/12/19 20:40:17;;;;;;;10.30;7.00;;;;;;;12.76;100.00;101770.09;10539178;28;20048;-83
2023/12/19 20:45:40;;;;;;;8.30;4.25;;;;;;;12.64;100.00;101776.03;10547751;28;20052;-81
2023/12/19 20:51:05;;;;;;;12.98;5.65;;;;;;;12.55;100.00;101775.78;10543480;28;20461;-81
2023/12/19 20:56:28;;;;;;;12.98;5.90;;;;;;;12.71;100.00;101771.75;10534496;28;20051;-81
2023/12/19 21:01:50;;;;;;;8.23;5.30;;;;;;;12.57;100.00;101762.59;10519848;28;20493;-81
2023/12/19 21:07:15;;;;;;;9.77;5.43;;;;;;;12.33;100.00;101776.16;10573848;28;20124;-81
2023/12/19 21:12:38;;;;;;;10.30;5.13;;;;;;;12.22;100.00;101764.38;10532154;28;20040;-81
2023/12/19 21:18:00;;;;;;;9.82;3.88;;;;;;;12.12;100.00;101757.09;10531008;28;20050;-86
2023/12/19 21:23:24;;;;;;;7.47;3.90;;;;;;;12.04;100.00;101748.94;10515770;28;20135;-87
2023/12/19 21:28:46;;;;;;;9.45;4.00;;;;;;;12.11;100.00;101747.34;10524928;28;20080;-87
2023/12/19 21:34:11;;;;;;;8.68;4.55;;;;;;;12.10;100.00;101738.50;10523824;28;20055;-85
2023/12/19 21:39:35;;;;;;;9.25;5.72;;;;;;;12.07;100.00;101729.63;10511338;28;20093;-84
2023/12/19 21:44:58;;;;;;;11.15;6.15;;;;;;;12.02;100.00;101737.41;10532793;28;20044;-83
2023/12/19 21:50:20;;;;;;;14.30;5.80;;;;;;;11.84;100.00;101731.66;10562114;27;20771;-89
2023/12/19 21:55:44;;;;;;;7.60;3.67;;;;;;;12.03;100.00;101736.56;10603429;27;20047;-85
2023/12/19 22:01:07;;;;;;;9.05;3.95;;;;;;;12.39;100.00;101736.59;10582490;28;20062;-84
2023/12/19 22:06:30;;;;;;;7.78;4.20;;;;;;;12.31;100.00;101719.63;10562656;28;20051;-83
2023/12/19 22:11:53;;;;;;;11.05;5.47;;;;;;;12.26;100.00;101714.22;10562024;28;20052;-84
2023/12/19 22:17:17;;;;;;;10.43;5.05;;;;;;;12.29;100.00;101708.06;10579684;28;20039;-84
2023/12/19 22:22:40;;;;;;;14.45;8.80;;;;;;;12.15;100.00;101694.50;10588823;28;20053;-82
2023/12/19 22:28:05;;;;;;;8.15;4.60;;;;;;;12.09;100.00;101689.06;10561032;28;20051;-79
2023/12/19 22:33:29;;;;;;;8.30;4.90;;;;;;;11.95;100.00;101683.44;10560559;28;20043;-86
2023/12/19 22:38:51;;;;;;;10.18;5.72;;;;;;;11.77;100.00;101693.56;10565678;28;20513;-86
2023/12/19 22:44:15;;;;;;;11.40;5.78;;;;;;;11.69;100.00;101688.88;10581730;27;20072;-86
2023/12/19 22:49:38;;;;;;;12.90;6.65;;;;;;;11.58;100.00;101700.09;10603437;27;20048;-85
2023/12/19 22:55:01;;;;;;;12.60;6.13;;;;;;;11.63;100.00;101705.50;10600046;27;20051;-84
2023/12/19 23:00:24;;;;;;;12.45;5.43;;;;;;;11.81;100.00;101691.91;10610696;27;20635;-86
2023/12/19 23:05:47;;;;;;;13.00;7.30;;;;;;;11.91;100.00;101691.28;10579598;27;20076;-86
2023/12/19 23:11:11;;;;;;;7.88;3.60;;;;;;;11.89;100.00;101685.94;10596281;27;20059;-84
2023/12/19 23:16:35;;;;;;;5.32;4.05;;;;;;;11.74;100.00;101684.69;10594819;27;20134;-84
2023/12/19 23:21:58;;;;;;;19.88;10.60;;;;;;;11.59;100.00;101682.47;10582014;27;20043;-84
2023/12/19 23:27:20;;;;;;;14.32;7.20;;;;;;;11.45;100.00;101686.50;10561231;27;20492;-84
2023/12/19 23:32:50;;;;;;;7.60;3.50;;;;;;;11.34;100.00;101693.25;10596300;27;20047;-81
2023/12/19 23:38:16;;;;;;;7.28;2.92;;;;;;;11.34;100.00;101685.34;10576222;27;20043;-80
2023/12/19 23:43:39;;;;;;;6.10;2.88;;;;;;;11.34;100.00;101687.97;10577208;27;20059;-81
2023/12/19 23:49:03;;;;;;;33.47;28.33;;;;;;;11.31;100.00;101677.31;10578357;27;20048;-80
2023/12/19 23:54:26;;;;;;;11.50;7.78;;;;;;;11.37;100.00;101678.38;10605078;27;20031;-82
2023/12/19 23:59:52;;;;;;;10.45;9.52;;;;;;;11.45;100.00;101679.47;10568392;27;20039;-84
